Time;durP1;ratioP1;P1;durP2;ratioP2;P2;SDS_P1;SDS_P2;PMS_P1;PMS_P2;Temp;Humidity;BMP_temperature;BMP_pressure;BME280_temperature;BME280_humidity;BME280_pressure;Samples;Min_cycle;Max_cycle;Signal;HPM_P1;HPM_P2
2022/09/08 00:02:04;;;;;;;6.68;2.90;;;;;;;17.76;100.00;95306.56;4971928;28;24445;-74
2022/09/08 00:04:32;;;;;;;5.15;2.92;;;;;;;17.83;100.00;95306.75;4970315;28;24448;-74
2022/09/08 00:07:01;;;;;;;5.85;2.65;;;;;;;17.74;100.00;95305.03;4971566;28;24449;-75
2022/09/08 00:09:30;;;;;;;4.03;2.70;;;;;;;17.71;100.00;95297.47;4972035;28;24492;-74
2022/09/08 00:11:56;;;;;;;3.75;2.50;;;;;;;17.71;100.00;95300.91;4966897;28;24465;-74
2022/09/08 00:14:23;;;;;;;3.22;2.40;;;;;;;17.77;100.00;95300.34;4969181;28;24979;-74
2022/09/08 00:16:50;;;;;;;9.18;2.95;;;;;;;17.76;100.00;95297.88;4971856;28;24446;-76
2022/09/08 00:19:17;;;;;;;5.07;2.60;;;;;;;17.84;100.00;95293.53;4971835;28;24454;-75
2022/09/08 00:21:45;;;;;;;3.33;2.65;;;;;;;17.79;100.00;95289.72;4965087;28;24445;-76
2022/09/08 00:24:11;;;;;;;5.13;2.70;;;;;;;17.84;100.00;95298.78;4971718;28;24997;-75
2022/09/08 00:26:38;;;;;;;5.07;2.60;;;;;;;17.88;100.00;95300.09;4972091;28;24793;-75
2022/09/08 00:29:04;;;;;;;4.10;2.60;;;;;;;17.77;100.00;95302.97;4966290;28;24441;-75
2022/09/08 00:31:31;;;;;;;8.05;2.65;;;;;;;17.72;100.00;95315.66;4963651;28;24448;-74
2022/09/08 00:33:58;;;;;;;3.93;2.90;;;;;;;17.73;100.00;95319.13;4970365;28;24505;-76
2022/09/08 00:36:24;;;;;;;6.15;2.85;;;;;;;17.73;100.00;95327.78;4971676;28;24437;-75
2022/09/08 00:38:55;;;;;;;3.42;2.47;;;;;;;17.75;100.00;95338.94;4971560;28;24457;-75
2022/09/08 00:41:23;;;;;;;7.18;2.78;;;;;;;17.70;100.00;95342.97;4963449;28;24574;-75
2022/09/08 00:43:53;;;;;;;3.08;2.25;;;;;;;17.70;100.00;95345.59;4971745;28;24441;-75
2022/09/08 00:46:25;;;;;;;6.85;2.33;;;;;;;17.58;100.00;95353.69;4971794;28;24448;-75
2022/09/08 00:48:58;;;;;;;3.25;2.50;;;;;;;17.51;100.00;95347.41;4971639;28;24433;-75
2022/09/08 00:51:26;;;;;;;3.05;2.15;;;;;;;17.57;100.00;95349.38;4971382;28;24456;-75
2022/09/08 00:53:55;;;;;;;3.17;2.13;;;;;;;17.54;100.00;95349.72;4971186;28;25002;-75
2022/09/08 00:56:23;;;;;;;5.07;2.50;;;;;;;17.58;100.00;95343.22;4971290;28;24446;-75
2022/09/08 00:58:50;;;;;;;3.38;2.50;;;;;;;17.66;100.00;95337.22;4971012;28;24983;-74
2022/09/08 01:01:17;;;;;;;5.10;3.10;;;;;;;17.78;100.00;95343.06;4971277;28;24444;-75
2022/09/08 01:03:44;;;;;;;5.03;2.95;;;;;;;17.85;100.00;95349.34;4963882;28;24444;-74
2022/09/08 01:12:43;;;;;;;3.63;2.63;;;;;;;17.78;100.00;95350.94;4966155;28;24440;-74
2022/09/08 01:14:53;;;;;;;3.40;2.50;;;;;;;17.69;100.00;95357.03;4960292;28;24413;-75
2022/09/08 01:17:22;;;;;;;4.10;2.38;;;;;;;17.65;100.00;95357.34;4971251;28;24843;-75
2022/09/08 01:19:50;;;;;;;4.28;2.33;;;;;;;17.64;100.00;95347.81;4970884;28;24464;-76
2022/09/08 01:22:37;;;;;;;3.72;2.38;;;;;;;17.57;100.00;95356.44;4970855;28;24440;-74
2022/09/08 01:25:26;;;;;;;4.45;2.15;;;;;;;17.58;100.00;95350.25;4961694;28;24442;-74
2022/09/08 01:28:00;;;;;;;3.60;2.20;;;;;;;17.63;100.00;95335.72;4964475;28;24520;-74
2022/09/08 01:30:27;;;;;;;3.03;2.00;;;;;;;17.55;100.00;95342.69;4970821;28;24979;-74
2022/09/08 01:32:53;;;;;;;5.72;2.20;;;;;;;17.49;100.00;95338.03;4969027;28;24444;-74
2022/09/08 01:35:32;;;;;;;4.95;2.10;;;;;;;17.50;100.00;95344.91;4970999;28;24441;-74
2022/09/08 01:37:58;;;;;;;3.20;2.10;;;;;;;17.51;100.00;95351.81;4969344;28;24433;-74
2022/09/08 01:40:25;;;;;;;4.47;1.80;;;;;;;17.45;100.00;95341.91;4966695;28;24457;-75
2022/09/08 01:42:51;;;;;;;4.03;2.10;;;;;;;17.35;100.00;95339.34;4970778;28;24441;-74
2022/09/08 01:45:19;;;;;;;3.78;2.10;;;;;;;17.25;100.00;95339.44;4971004;28;24449;-75
2022/09/08 01:47:46;;;;;;;3.55;2.08;;;;;;;17.26;100.00;95338.47;4970615;28;25034;-75
2022/09/08 01:50:12;;;;;;;3.35;2.00;;;;;;;17.21;100.00;95334.66;4970861;28;24792;-75
2022/09/08 01:52:39;;;;;;;3.20;1.90;;;;;;;17.15;100.00;95329.03;4970376;28;24449;-75
2022/09/08 01:55:06;;;;;;;6.27;2.23;;;;;;;17.05;100.00;95328.25;4970858;28;24518;-75
2022/09/08 01:57:32;;;;;;;6.88;1.88;;;;;;;17.07;100.00;95326.31;4970506;28;24440;-75
2022/09/08 01:59:59;;;;;;;3.63;1.90;;;;;;;17.12;100.00;95308.38;4970296;28;24456;-75
2022/09/08 02:02:26;;;;;;;7.72;1.88;;;;;;;17.10;100.00;95307.72;4970514;28;24982;-74
2022/09/08 02:04:53;;;;;;;3.70;1.85;;;;;;;17.17;100.00;95300.94;4970436;28;24440;-75
2022/09/08 02:07:23;;;;;;;3.30;1.80;;;;;;;17.14;100.00;95298.59;4970587;28;24494;-74
2022/09/08 02:09:49;;;;;;;5.85;1.50;;;;;;;17.12;100.00;95307.56;4971049;28;24783;-75
2022/09/08 02:12:16;;;;;;;2.33;1.20;;;;;;;17.14;100.00;95298.59;4975411;28;24441;-74
2022/09/08 02:14:42;;;;;;;3.60;1.75;;;;;;;16.99;100.00;95294.03;4986592;28;24444;-76
2022/09/08 02:17:09;;;;;;;3.38;1.60;;;;;;;16.87;100.00;95296.84;4969522;28;24441;-75
2022/09/08 02:19:36;;;;;;;2.55;1.50;;;;;;;16.98;100.00;95298.41;4972528;28;25003;-76
2022/09/08 02:22:03;;;;;;;3.55;1.58;;;;;;;16.90;100.00;95304.38;4971153;28;24452;-76
2022/09/08 02:24:30;;;;;;;4.87;1.80;;;;;;;16.92;100.00;95306.88;4972645;28;24434;-75
2022/09/08 02:26:56;;;;;;;3.00;1.70;;;;;;;16.99;100.00;95299.25;4966410;28;24456;-75
2022/09/08 02:29:23;;;;;;;4.63;2.10;;;;;;;16.95;100.00;95287.44;4966372;28;24505;-74
2022/09/08 02:31:49;;;;;;;5.47;1.92;;;;;;;16.92;100.00;95291.16;4974031;28;24453;-75
2022/09/08 02:34:16;;;;;;;3.25;1.60;;;;;;;17.07;100.00;95294.94;4974142;28;24434;-75
2022/09/08 02:36:44;;;;;;;3.03;1.77;;;;;;;16.95;100.00;95285.66;4973693;28;24444;-75
2022/09/08 02:39:16;;;;;;;4.22;1.60;;;;;;;16.78;100.00;95289.88;4973888;28;24529;-75
2022/09/08 02:41:43;;;;;;;3.30;1.77;;;;;;;16.72;100.00;95281.75;4973663;28;24445;-75
2022/09/08 02:44:10;;;;;;;3.50;1.70;;;;;;;16.81;100.00;95288.75;4968895;28;24441;-75
2022/09/08 02:46:37;;;;;;;5.20;1.70;;;;;;;16.67;100.00;95282.19;4966134;28;24442;-73
2022/09/08 02:49:04;;;;;;;2.93;1.50;;;;;;;16.69;100.00;95285.50;4969260;28;24441;-74
2022/09/08 02:51:31;;;;;;;3.50;1.67;;;;;;;16.65;100.00;95284.97;4971708;28;24532;-74
2022/09/08 02:53:59;;;;;;;6.32;1.38;;;;;;;16.56;100.00;95283.19;4968574;28;24473;-75
2022/09/08 02:56:26;;;;;;;2.13;1.30;;;;;;;16.49;100.00;95284.75;4969679;28;24437;-74
2022/09/08 02:58:54;;;;;;;2.30;1.30;;;;;;;16.54;100.00;95285.16;4971080;28;24445;-75
2022/09/08 03:01:21;;;;;;;3.58;1.40;;;;;;;16.46;100.00;95282.41;4972739;28;24448;-75
2022/09/08 03:03:48;;;;;;;2.60;1.33;;;;;;;16.57;100.00;95290.06;4969884;28;24426;-74
2022/09/08 03:06:15;;;;;;;2.80;1.50;;;;;;;16.50;100.00;95282.94;4969396;28;24504;-75
2022/09/08 03:08:41;;;;;;;3.20;1.25;;;;;;;16.44;100.00;95286.97;4973267;28;24433;-74
2022/09/08 03:11:09;;;;;;;2.28;1.30;;;;;;;16.39;100.00;95289.22;4973792;28;24445;-75
2022/09/08 03:13:37;;;;;;;2.93;1.20;;;;;;;16.48;100.00;95285.72;4973002;28;24895;-74
2022/09/08 03:16:03;;;;;;;2.80;1.65;;;;;;;16.42;100.00;95284.47;4967946;28;24445;-74
2022/09/08 03:18:30;;;;;;;2.80;1.40;;;;;;;16.51;100.00;95279.38;4969191;28;24436;-74
2022/09/08 03:21:00;;;;;;;2.28;1.20;;;;;;;16.30;100.00;95283.03;4972178;28;24464;-75
2022/09/08 03:23:28;;;;;;;5.13;1.70;;;;;;;16.30;100.00;95288.25;4969309;28;24442;-74
2022/09/08 03:25:55;;;;;;;2.35;1.20;;;;;;;16.20;100.00;95283.09;4972440;28;24438;-74
2022/09/08 03:28:25;;;;;;;1.63;1.10;;;;;;;16.24;100.00;95286.22;4973034;28;24457;-74
2022/09/08 03:30:52;;;;;;;3.60;1.40;;;;;;;16.26;100.00;95278.25;4973075;28;24426;-74
2022/09/08 03:33:18;;;;;;;3.50;1.42;;;;;;;16.12;100.00;95289.97;4971919;28;24464;-74
2022/09/08 03:35:46;;;;;;;2.35;1.25;;;;;;;16.12;100.00;95276.91;4972777;28;24453;-75
2022/09/08 03:38:13;;;;;;;3.15;1.30;;;;;;;16.06;100.00;95277.50;4972649;28;24524;-74
2022/09/08 03:40:40;;;;;;;2.47;1.20;;;;;;;16.04;100.00;95275.00;4972471;28;24458;-74
2022/09/08 03:43:07;;;;;;;2.70;1.23;;;;;;;16.12;100.00;95282.94;4972288;28;24527;-73
2022/09/08 03:45:35;;;;;;;3.57;1.23;;;;;;;16.19;100.00;95270.97;4972627;28;24519;-74
2022/09/08 03:48:01;;;;;;;4.60;1.10;;;;;;;16.09;100.00;95277.19;4972659;28;24443;-73
2022/09/08 03:50:28;;;;;;;1.52;0.93;;;;;;;16.01;100.00;95274.47;4971385;28;24437;-74
2022/09/08 03:52:54;;;;;;;2.95;1.20;;;;;;;16.07;100.00;95279.94;4969377;28;24452;-75
2022/09/08 03:55:21;;;;;;;2.20;1.00;;;;;;;16.02;100.00;95271.72;4972316;28;24433;-75
2022/09/08 03:57:47;;;;;;;1.65;0.98;;;;;;;15.97;100.00;95279.13;4968063;28;24445;-74
2022/09/08 04:00:15;;;;;;;1.83;0.87;;;;;;;16.03;100.00;95277.75;4972014;28;25097;-76
2022/09/08 04:02:43;;;;;;;2.08;1.10;;;;;;;16.07;100.00;95277.34;4972076;28;24448;-74
2022/09/08 04:05:11;;;;;;;1.60;0.95;;;;;;;16.09;100.00;95280.66;4971254;28;24440;-74
2022/09/08 04:07:39;;;;;;;2.30;0.90;;;;;;;16.05;100.00;95275.81;4968907;28;24456;-74
2022/09/08 04:10:06;;;;;;;3.08;1.00;;;;;;;15.95;100.00;95278.47;4971408;28;24529;-73
2022/09/08 04:12:33;;;;;;;4.15;1.30;;;;;;;15.93;100.00;95272.56;4970078;28;24947;-72
2022/09/08 04:15:00;;;;;;;1.60;0.90;;;;;;;15.96;100.00;95283.53;4972022;28;24438;-72
2022/09/08 04:17:26;;;;;;;1.75;1.00;;;;;;;15.92;100.00;95283.97;4969854;28;24433;-73
2022/09/08 04:19:54;;;;;;;1.85;1.05;;;;;;;15.95;100.00;95296.75;4969530;28;24453;-72
2022/09/08 04:22:22;;;;;;;2.10;1.05;;;;;;;15.93;100.00;95291.66;4966803;28;24436;-73
2022/09/08 04:24:49;;;;;;;2.50;0.80;;;;;;;15.93;100.00;95296.06;4969916;28;24441;-72
2022/09/08 04:27:16;;;;;;;3.58;1.02;;;;;;;15.95;100.00;95299.38;4958262;28;24465;-73
2022/09/08 04:29:43;;;;;;;2.42;1.17;;;;;;;16.02;100.00;95304.81;4975446;28;24434;-73
2022/09/08 04:32:10;;;;;;;1.92;1.00;;;;;;;16.07;100.00;95297.41;4970523;28;24437;-73
2022/09/08 04:34:37;;;;;;;3.90;1.20;;;;;;;16.03;100.00;95289.03;4961950;28;25255;-71
2022/09/08 04:37:06;;;;;;;1.38;0.90;;;;;;;16.01;100.00;95284.91;4972496;28;24488;-72
2022/09/08 04:39:33;;;;;;;1.90;1.00;;;;;;;16.02;100.00;95287.41;4963200;28;24795;-71
2022/09/08 04:42:00;;;;;;;2.38;1.15;;;;;;;16.00;100.00;95289.31;4970463;28;24448;-72
2022/09/08 04:44:26;;;;;;;2.67;1.20;;;;;;;16.00;100.00;95296.31;4962106;28;24438;-72
2022/09/08 04:46:53;;;;;;;1.90;0.88;;;;;;;15.99;100.00;95302.53;4971829;28;24436;-72
2022/09/08 04:49:19;;;;;;;2.10;1.08;;;;;;;16.01;100.00;95298.78;4971842;28;24442;-72
2022/09/08 04:51:46;;;;;;;2.88;1.00;;;;;;;16.00;100.00;95299.75;4966114;28;24445;-72
2022/09/08 04:54:14;;;;;;;1.55;0.80;;;;;;;15.80;100.00;95311.22;4968965;28;24444;-72
2022/09/08 04:56:40;;;;;;;1.80;0.50;;;;;;;15.85;100.00;95315.03;4969727;28;24452;-72
2022/09/08 04:59:07;;;;;;;0.70;0.55;;;;;;;15.79;100.00;95307.75;4964907;28;24445;-71
2022/09/08 05:01:35;;;;;;;1.00;0.50;;;;;;;15.73;100.00;95311.75;4965002;28;25103;-72
2022/09/08 05:04:03;;;;;;;0.65;0.30;;;;;;;15.88;100.00;95313.94;4970285;28;24442;-72
2022/09/08 05:06:32;;;;;;;0.60;0.20;;;;;;;15.73;100.00;95318.78;4963783;28;24452;-72
2022/09/08 05:08:59;;;;;;;1.40;0.40;;;;;;;15.56;100.00;95322.84;4967788;28;24433;-73
2022/09/08 05:11:29;;;;;;;1.15;0.30;;;;;;;15.41;100.00;95319.84;4969927;28;24524;-73
2022/09/08 05:13:56;;;;;;;1.48;0.30;;;;;;;15.39;100.00;95331.38;4969612;28;24449;-72
2022/09/08 05:16:25;;;;;;;0.57;0.30;;;;;;;15.38;100.00;95346.19;4969884;28;24441;-73
2022/09/08 05:18:54;;;;;;;0.90;0.20;;;;;;;15.53;100.00;95348.41;4967687;28;24497;-73
2022/09/08 05:21:21;;;;;;;0.38;0.30;;;;;;;15.65;100.00;95344.72;4968846;28;24464;-73
2022/09/08 05:23:49;;;;;;;0.60;0.30;;;;;;;15.65;100.00;95353.41;4969554;28;24445;-72
2022/09/08 05:26:17;;;;;;;0.40;0.30;;;;;;;15.60;100.00;95350.34;4970711;28;24507;-77
2022/09/08 05:28:46;;;;;;;0.60;0.30;;;;;;;15.59;100.00;95356.53;4964105;28;24442;-76
2022/09/08 05:31:15;;;;;;;1.45;0.40;;;;;;;15.66;100.00;95359.44;4968296;28;24453;-73
2022/09/08 05:33:41;;;;;;;0.87;0.50;;;;;;;15.62;100.00;95365.88;4970205;28;24803;-74
2022/09/08 05:36:13;;;;;;;1.90;0.60;;;;;;;15.56;100.00;95369.03;4968640;28;24800;-74
2022/09/08 05:38:40;;;;;;;1.17;0.40;;;;;;;15.51;100.00;95373.84;4970428;28;24447;-74
2022/09/08 05:41:09;;;;;;;0.38;0.30;;;;;;;15.46;100.00;95374.22;4969677;28;24457;-73
2022/09/08 05:43:36;;;;;;;1.10;0.30;;;;;;;15.33;100.00;95377.09;4970270;28;24889;-73
2022/09/08 05:46:04;;;;;;;0.77;0.55;;;;;;;15.32;100.00;95383.28;4970049;28;24517;-73
2022/09/08 05:48:31;;;;;;;2.60;0.50;;;;;;;15.33;100.00;95386.72;4970329;28;24440;-73
2022/09/08 05:50:58;;;;;;;1.45;0.50;;;;;;;15.32;100.00;95391.13;4970117;28;25070;-74
2022/09/08 05:53:25;;;;;;;0.93;0.50;;;;;;;15.24;100.00;95394.41;4966463;28;24448;-73
2022/09/08 05:56:03;;;;;;;0.63;0.50;;;;;;;15.26;100.00;95394.25;4965106;28;24659;-73
2022/09/08 05:58:30;;;;;;;1.30;0.68;;;;;;;15.28;100.00;95392.34;4972808;28;24439;-73
2022/09/08 06:00:58;;;;;;;0.50;0.40;;;;;;;15.24;100.00;95391.78;4974222;28;24453;-74
2022/09/08 06:03:26;;;;;;;1.40;0.60;;;;;;;15.30;100.00;95390.41;4971884;28;25228;-73
2022/09/08 06:05:53;;;;;;;0.60;0.40;;;;;;;15.39;100.00;95383.56;4971498;28;25030;-74
2022/09/08 06:08:21;;;;;;;0.95;0.40;;;;;;;15.38;100.00;95382.72;4973354;28;24836;-74
2022/09/08 06:10:50;;;;;;;1.10;0.40;;;;;;;15.37;100.00;95388.91;4973824;28;24987;-74
2022/09/08 06:13:16;;;;;;;2.75;0.47;;;;;;;15.36;100.00;95383.84;4973875;28;24434;-74
2022/09/08 06:15:43;;;;;;;1.30;0.60;;;;;;;15.33;100.00;95381.50;4974356;28;24472;-74
2022/09/08 06:18:09;;;;;;;2.25;0.45;;;;;;;15.42;100.00;95373.66;4964302;28;24441;-73
2022/09/08 06:20:37;;;;;;;3.08;0.50;;;;;;;15.36;100.00;95389.88;4973851;28;24840;-73
2022/09/08 06:23:04;;;;;;;0.85;0.38;;;;;;;15.44;100.00;95397.84;4973564;28;24445;-73
2022/09/08 06:25:30;;;;;;;0.90;0.40;;;;;;;15.40;100.00;95393.03;4973692;28;24437;-73
2022/09/08 06:28:04;;;;;;;4.80;0.50;;;;;;;15.46;100.00;95387.25;4965715;28;24440;-73
2022/09/08 06:30:31;;;;;;;1.23;0.60;;;;;;;15.38;100.00;95390.56;4965192;28;24429;-73
2022/09/08 06:33:01;;;;;;;2.40;0.50;;;;;;;15.32;100.00;95405.94;4967376;28;24522;-73
2022/09/08 06:35:34;;;;;;;1.60;0.70;;;;;;;15.33;100.00;95404.97;4963157;28;24817;-73
2022/09/08 06:38:06;;;;;;;0.43;0.40;;;;;;;15.43;100.00;95403.22;4967229;28;24524;-74
2022/09/08 06:40:36;;;;;;;1.73;0.60;;;;;;;15.54;100.00;95404.88;4973620;28;24478;-74
2022/09/08 06:43:08;;;;;;;2.00;0.90;;;;;;;15.42;100.00;95411.97;4973754;28;24434;-74
2022/09/08 06:45:36;;;;;;;1.67;0.47;;;;;;;15.45;100.00;95409.94;4971576;28;24437;-70
2022/09/08 06:48:20;;;;;;;1.73;0.30;;;;;;;15.42;100.00;95418.03;4971113;28;24843;-74
2022/09/08 06:51:13;;;;;;;1.38;0.47;;;;;;;15.56;100.00;95418.63;4972835;28;24445;-75
2022/09/08 06:53:44;;;;;;;1.42;0.35;;;;;;;15.62;100.00;95425.91;4960637;28;24442;-74
2022/09/08 06:56:25;;;;;;;1.30;0.50;;;;;;;15.57;100.00;95425.47;4973433;28;24436;-75
2022/09/08 06:59:00;;;;;;;0.75;0.40;;;;;;;15.57;100.00;95420.25;4980401;28;24440;-75
2022/09/08 07:01:34;;;;;;;1.83;0.40;;;;;;;15.67;100.00;95428.97;4973667;28;25029;-76
2022/09/08 07:04:13;;;;;;;0.70;0.45;;;;;;;15.58;100.00;95425.34;4968072;28;24430;-75
2022/09/08 07:06:47;;;;;;;0.88;0.40;;;;;;;15.61;100.00;95422.47;4972311;28;24824;-75
2022/09/08 07:09:21;;;;;;;1.50;0.60;;;;;;;15.56;100.00;95416.81;4967410;28;25039;-76
2022/09/08 07:12:00;;;;;;;0.57;0.40;;;;;;;15.38;100.00;95414.03;4973265;28;24433;-77
2022/09/08 07:14:42;;;;;;;0.73;0.40;;;;;;;15.32;100.00;95408.56;4971825;28;24982;-73
2022/09/08 07:17:18;;;;;;;1.20;0.50;;;;;;;15.32;100.00;95416.38;4969023;28;24434;-73
2022/09/08 07:19:49;;;;;;;0.63;0.40;;;;;;;15.53;100.00;95419.69;4961512;28;24434;-73
2022/09/08 07:22:31;;;;;;;0.38;0.30;;;;;;;15.61;100.00;95419.03;4968344;28;24547;-74
2022/09/08 07:25:10;;;;;;;0.98;0.60;;;;;;;15.65;100.00;95421.28;4972911;28;24808;-75
2022/09/08 07:27:39;;;;;;;0.85;0.60;;;;;;;15.58;100.00;95422.75;4964999;28;24441;-76
2022/09/08 07:30:06;;;;;;;1.08;0.60;;;;;;;15.71;100.00;95422.50;4967149;28;25005;-75
2022/09/08 07:32:36;;;;;;;10.52;0.65;;;;;;;15.60;100.00;95420.81;4973256;28;24441;-74
2022/09/08 07:35:10;;;;;;;0.85;0.50;;;;;;;15.66;100.00;95425.53;4972869;28;24995;-75
2022/09/08 07:37:43;;;;;;;0.52;0.45;;;;;;;15.72;100.00;95432.81;4965448;28;24438;-74
2022/09/08 07:40:17;;;;;;;1.45;0.57;;;;;;;15.70;100.00;95432.13;4972242;28;24445;-75
2022/09/08 07:42:44;;;;;;;1.60;0.70;;;;;;;15.78;100.00;95447.13;4973381;28;24516;-75
2022/09/08 07:45:12;;;;;;;0.52;0.50;;;;;;;16.20;100.00;95445.06;4966534;28;24438;-75
2022/09/08 07:47:52;;;;;;;1.77;0.60;;;;;;;16.37;100.00;95456.59;4971954;28;24437;-75
2022/09/08 07:50:53;;;;;;;1.58;0.50;;;;;;;16.93;100.00;95445.34;4962211;28;24869;-75
2022/09/08 07:53:35;;;;;;;1.10;0.50;;;;;;;17.40;100.00;95442.66;4968657;28;24529;-75
2022/09/08 07:56:11;;;;;;;1.00;0.57;;;;;;;17.41;100.00;95444.31;4972978;28;24440;-75
2022/09/08 07:58:46;;;;;;;0.80;0.50;;;;;;;17.18;100.00;95445.66;4964870;28;24441;-74
2022/09/08 08:01:22;;;;;;;0.73;0.50;;;;;;;17.44;100.00;95448.44;4968123;28;24465;-74
2022/09/08 08:03:59;;;;;;;1.80;0.60;;;;;;;17.47;100.00;95436.84;4968794;28;24550;-75
2022/09/08 08:06:37;;;;;;;3.38;0.60;;;;;;;17.87;100.00;95446.94;4970600;28;24468;-75
2022/09/08 08:09:13;;;;;;;0.90;0.40;;;;;;;17.79;100.00;95449.50;4969981;28;24441;-75
2022/09/08 08:11:46;;;;;;;0.90;0.52;;;;;;;17.60;100.00;95456.47;4975208;28;24504;-76
2022/09/08 08:14:22;;;;;;;4.17;0.60;;;;;;;17.73;100.00;95450.06;4971765;28;24488;-76
2022/09/08 08:16:58;;;;;;;0.75;0.40;;;;;;;17.86;100.00;95464.47;4964006;28;24442;-74
2022/09/08 08:19:52;;;;;;;0.57;0.45;;;;;;;17.72;100.00;95461.50;4968476;28;24445;-74
2022/09/08 08:22:27;;;;;;;1.50;0.50;;;;;;;17.75;100.00;95458.59;4968258;28;24916;-74
2022/09/08 08:25:01;;;;;;;1.00;0.50;;;;;;;17.65;100.00;95461.28;4970221;28;24433;-74
2022/09/08 08:27:36;;;;;;;2.78;0.68;;;;;;;17.37;100.00;95460.47;4971429;28;24441;-74
2022/09/08 08:30:15;;;;;;;1.10;0.50;;;;;;;17.07;100.00;95464.19;4971683;28;24440;-74
2022/09/08 08:32:47;;;;;;;1.83;0.43;;;;;;;17.20;100.00;95455.97;4971521;28;24476;-74
2022/09/08 08:35:20;;;;;;;1.20;0.40;;;;;;;17.46;100.00;95466.59;4970419;28;24536;-74
2022/09/08 08:37:50;;;;;;;1.67;0.50;;;;;;;17.45;100.00;95471.03;4966195;28;24458;-75
2022/09/08 08:40:32;;;;;;;0.85;0.50;;;;;;;17.56;100.00;95467.38;4972491;28;24429;-73
2022/09/08 08:43:33;;;;;;;0.90;0.50;;;;;;;17.72;100.00;95474.59;4967573;28;24470;-73
2022/09/08 08:46:19;;;;;;;1.88;0.50;;;;;;;17.53;100.00;95480.75;4958933;28;24525;-75
2022/09/08 08:49:01;;;;;;;1.10;0.50;;;;;;;17.28;100.00;95487.47;4972419;28;24434;-74
2022/09/08 08:51:51;;;;;;;0.90;0.57;;;;;;;17.13;100.00;95480.13;4964116;28;24437;-73
2022/09/08 08:54:47;;;;;;;2.15;0.60;;;;;;;17.23;100.00;95481.88;4963973;28;24500;-74
2022/09/08 08:57:33;;;;;;;1.20;0.52;;;;;;;17.17;100.00;95489.34;4967576;28;24441;-75
2022/09/08 09:00:13;;;;;;;1.13;0.50;;;;;;;17.32;100.00;95494.94;4965370;28;24425;-74
2022/09/08 09:03:05;;;;;;;1.75;0.50;;;;;;;17.44;100.00;95500.81;4970516;28;24469;-74
2022/09/08 09:05:54;;;;;;;0.90;0.55;;;;;;;17.75;100.00;95497.88;4971275;28;25035;-73
2022/09/08 09:08:52;;;;;;;2.78;0.40;;;;;;;17.84;100.00;95497.84;4971377;28;24441;-74
2022/09/08 09:11:33;;;;;;;1.35;0.50;;;;;;;18.07;97.34;95498.25;4952164;28;24784;-74
2022/09/08 09:14:18;;;;;;;3.53;0.60;;;;;;;18.19;97.44;95492.78;4952288;28;24421;-73
2022/09/08 09:17:08;;;;;;;1.35;0.60;;;;;;;18.60;97.43;95496.56;4960551;28;24437;-75
2022/09/08 09:19:58;;;;;;;1.27;0.50;;;;;;;18.61;93.12;95491.19;4958592;28;24434;-74
2022/09/08 09:22:29;;;;;;;1.98;0.57;;;;;;;18.81;92.79;95491.84;4962449;28;24473;-73
2022/09/08 09:25:12;;;;;;;1.15;0.47;;;;;;;18.70;92.91;95486.81;4960007;28;24438;-74
2022/09/08 09:27:45;;;;;;;1.48;0.52;;;;;;;19.02;88.38;95483.63;4962215;28;24492;-72
2022/09/08 09:30:22;;;;;;;1.67;0.60;;;;;;;19.33;86.65;95472.63;4971562;28;24813;-72
2022/09/08 09:33:30;;;;;;;2.97;0.60;;;;;;;19.66;86.10;95467.53;4964315;28;24521;-72
2022/09/08 09:36:10;;;;;;;1.25;0.60;;;;;;;19.18;85.25;95476.81;4968655;28;24432;-73
2022/09/08 09:38:59;;;;;;;1.00;0.57;;;;;;;18.80;83.12;95486.75;4974899;28;24977;-72
2022/09/08 09:41:50;;;;;;;0.63;0.40;;;;;;;18.62;85.56;95497.25;4974589;28;24923;-72
2022/09/08 09:44:47;;;;;;;1.50;0.50;;;;;;;18.44;87.21;95488.59;4963310;28;24437;-72
2022/09/08 09:47:36;;;;;;;2.25;0.60;;;;;;;18.57;85.20;95489.81;4975064;28;24421;-72
2022/09/08 09:50:36;;;;;;;1.25;0.60;;;;;;;19.27;86.18;95475.88;4969811;28;24982;-72
2022/09/08 09:53:16;;;;;;;2.33;0.73;;;;;;;19.70;82.58;95467.03;4971112;28;24445;-72
2022/09/08 09:56:07;;;;;;;3.17;0.75;;;;;;;19.75;80.46;95472.63;4961645;28;24425;-72
2022/09/08 09:59:09;;;;;;;1.90;0.60;;;;;;;20.17;79.45;95473.53;4974937;28;24428;-72
2022/09/08 10:01:56;;;;;;;3.10;0.70;;;;;;;19.99;80.23;95477.16;4971707;28;24469;-72
2022/09/08 10:04:46;;;;;;;1.67;0.65;;;;;;;19.10;83.03;95474.97;4974778;28;24425;-72
2022/09/08 10:07:52;;;;;;;1.80;0.63;;;;;;;18.88;87.30;95478.94;4970896;28;24441;-72
2022/09/08 10:10:52;;;;;;;1.70;0.68;;;;;;;18.72;85.48;95481.44;4971339;28;24436;-72
2022/09/08 10:13:47;;;;;;;3.45;1.00;;;;;;;18.57;84.52;95478.50;4974177;28;24788;-72
2022/09/08 10:16:58;;;;;;;3.03;0.65;;;;;;;18.60;85.34;95480.84;4972026;28;24449;-72
2022/09/08 10:19:58;;;;;;;1.77;0.70;;;;;;;18.70;84.69;95481.56;4957550;28;24489;-72
2022/09/08 10:22:56;;;;;;;1.93;0.60;;;;;;;18.82;83.57;95497.91;4970973;28;24511;-72
2022/09/08 10:26:08;;;;;;;2.03;0.80;;;;;;;18.67;80.49;95481.88;4973998;28;25002;-73
2022/09/08 10:29:09;;;;;;;2.40;0.70;;;;;;;18.47;81.29;95486.50;4951764;28;24451;-72
2022/09/08 10:32:10;;;;;;;1.83;0.60;;;;;;;18.69;81.69;95493.06;4973663;28;24496;-72
2022/09/08 10:35:25;;;;;;;2.88;0.65;;;;;;;18.75;80.25;95486.38;4974134;28;24430;-73
2022/09/08 10:38:37;;;;;;;4.40;0.88;;;;;;;18.93;80.34;95491.59;4966607;28;24449;-73
2022/09/08 10:41:28;;;;;;;3.10;0.65;;;;;;;19.55;79.75;95485.19;4932541;29;24555;-73
2022/09/08 10:44:28;;;;;;;3.30;0.88;;;;;;;20.00;77.15;95475.34;4957437;28;24453;-73
2022/09/08 10:47:27;;;;;;;4.95;0.80;;;;;;;20.22;75.22;95468.63;4973472;28;24799;-73
2022/09/08 10:50:10;;;;;;;1.90;0.90;;;;;;;19.61;74.96;95469.75;4960060;28;24484;-73
2022/09/08 10:52:50;;;;;;;1.52;0.60;;;;;;;19.57;72.96;95479.75;4973527;28;24441;-73
2022/09/08 10:55:42;;;;;;;3.03;0.80;;;;;;;19.14;74.25;95486.00;4973764;28;24434;-73
2022/09/08 10:58:53;;;;;;;3.50;0.70;;;;;;;18.96;73.71;95481.63;4960680;28;24460;-73
2022/09/08 11:01:43;;;;;;;2.60;0.65;;;;;;;19.26;72.36;95468.97;4930906;29;24450;-73
2022/09/08 11:04:53;;;;;;;4.97;0.75;;;;;;;19.65;69.84;95464.06;4960858;28;24446;-73
2022/09/08 11:07:38;;;;;;;4.65;0.68;;;;;;;19.89;67.79;95476.47;4891060;28;24999;-73
2022/09/08 11:10:25;;;;;;;3.50;0.82;;;;;;;19.50;70.34;95476.13;4973458;28;24936;-73
2022/09/08 11:13:03;;;;;;;3.63;0.60;;;;;;;19.53;69.50;95473.19;4973600;28;24504;-73
2022/09/08 11:16:08;;;;;;;2.55;0.70;;;;;;;19.41;70.34;95475.28;4963309;28;24986;-72
2022/09/08 11:18:53;;;;;;;1.95;0.68;;;;;;;19.46;70.28;95483.50;4961027;28;24445;-73
2022/09/08 11:21:26;;;;;;;2.38;0.57;;;;;;;19.65;72.36;95486.88;4973072;28;24979;-73
2022/09/08 11:24:04;;;;;;;4.45;0.90;;;;;;;19.61;70.67;95482.91;4960889;28;24433;-73
2022/09/08 11:26:45;;;;;;;2.30;0.77;;;;;;;19.58;68.48;95478.81;4973104;28;24962;-72
2022/09/08 11:29:15;;;;;;;1.30;0.50;;;;;;;19.50;70.48;95478.75;4973450;28;24849;-73
2022/09/08 11:31:57;;;;;;;4.65;0.77;;;;;;;19.21;70.55;95487.00;4973161;28;24792;-73
2022/09/08 11:34:42;;;;;;;2.33;0.90;;;;;;;19.54;70.34;95488.81;4973214;28;24429;-72
2022/09/08 11:37:47;;;;;;;1.88;0.68;;;;;;;20.00;68.90;95489.28;4973189;28;24428;-73
2022/09/08 11:40:37;;;;;;;3.17;1.00;;;;;;;20.12;69.63;95494.25;4973037;28;24508;-73
2022/09/08 11:43:21;;;;;;;3.15;0.77;;;;;;;20.14;67.21;95503.63;4972555;28;25021;-73
2022/09/08 11:46:01;;;;;;;2.15;0.80;;;;;;;20.05;69.44;95508.03;4953075;28;24429;-72
2022/09/08 11:48:50;;;;;;;4.85;0.90;;;;;;;19.87;68.53;95501.25;4970638;28;24452;-72
2022/09/08 11:51:38;;;;;;;2.60;0.70;;;;;;;19.89;70.54;95494.03;4972687;28;24449;-73
2022/09/08 11:54:17;;;;;;;2.13;0.60;;;;;;;20.27;68.82;95500.50;4972059;28;24418;-72
2022/09/08 11:57:26;;;;;;;3.90;0.70;;;;;;;20.37;67.89;95489.84;4972603;28;24436;-73
2022/09/08 12:00:13;;;;;;;2.33;1.10;;;;;;;20.72;68.48;95489.53;4929175;28;24474;-74
2022/09/08 12:02:55;;;;;;;1.58;0.65;;;;;;;20.93;67.81;95493.47;4972173;28;24598;-75
2022/09/08 12:05:29;;;;;;;1.70;0.63;;;;;;;21.19;67.64;95485.34;4972301;28;24468;-74
2022/09/08 12:08:19;;;;;;;3.70;0.85;;;;;;;20.85;68.83;95489.03;4967791;28;24441;-75
2022/09/08 12:11:02;;;;;;;6.50;0.98;;;;;;;20.65;71.15;95495.63;4963886;28;24438;-75